Time;durP1;ratioP1;P1;durP2;ratioP2;P2;SDS_P1;SDS_P2;PMS_P1;PMS_P2;Temp;Humidity;BMP_temperature;BMP_pressure;BME280_temperature;BME280_humidity;BME280_pressure;Samples;Min_cycle;Max_cycle;Signal;HPM_P1;HPM_P2
2024/03/05 00:02:17;;;;;;;8.38;6.07;;;7.40;99.90;;;;;;5039129;28;20024;-31
2024/03/05 00:04:43;;;;;;;9.52;7.03;;;7.40;99.90;;;;;;5039253;28;20025;-35
2024/03/05 00:07:09;;;;;;;8.60;6.82;;;7.40;99.90;;;;;;5039661;28;20044;-32
2024/03/05 00:09:36;;;;;;;10.48;7.18;;;7.30;99.90;;;;;;5043398;28;20142;-35
2024/03/05 00:12:02;;;;;;;8.93;6.78;;;7.30;99.90;;;;;;5042993;28;20021;-33
2024/03/05 00:14:28;;;;;;;8.82;6.93;;;7.30;99.90;;;;;;5041905;28;20044;-32
2024/03/05 00:16:56;;;;;;;8.57;6.60;;;7.30;99.90;;;;;;5043391;28;20059;-35
2024/03/05 00:19:22;;;;;;;9.00;6.85;;;7.30;99.90;;;;;;5042727;28;20033;-34
2024/03/05 00:21:48;;;;;;;9.90;6.60;;;7.30;99.90;;;;;;5042366;28;20033;-33
2024/03/05 00:24:13;;;;;;;9.30;6.55;;;7.30;99.90;;;;;;5043662;28;20491;-36
2024/03/05 00:26:39;;;;;;;9.57;6.70;;;7.30;99.90;;;;;;5043362;28;20517;-34
2024/03/05 00:29:05;;;;;;;10.32;6.68;;;7.30;99.90;;;;;;5043040;28;20048;-36
2024/03/05 00:31:30;;;;;;;10.40;6.85;;;7.30;99.90;;;;;;5043121;28;20057;-34
2024/03/05 00:33:56;;;;;;;11.50;7.40;;;7.30;99.90;;;;;;5043550;28;20106;-37
2024/03/05 00:36:23;;;;;;;8.77;7.35;;;7.40;99.90;;;;;;5042121;28;20025;-36
2024/03/05 00:38:49;;;;;;;9.27;6.97;;;7.40;99.90;;;;;;5043627;28;20037;-32
2024/03/05 00:41:17;;;;;;;9.93;7.18;;;7.40;99.90;;;;;;5043406;28;20264;-36
2024/03/05 00:43:43;;;;;;;9.05;6.85;;;7.50;99.90;;;;;;5042018;28;20091;-33
2024/03/05 00:46:08;;;;;;;9.45;7.32;;;7.50;99.90;;;;;;5042827;28;20037;-35
2024/03/05 00:48:34;;;;;;;9.73;6.88;;;7.60;99.90;;;;;;5042862;28;20036;-34
2024/03/05 00:50:59;;;;;;;12.60;7.60;;;7.60;99.90;;;;;;5042275;28;20029;-30
2024/03/05 00:53:27;;;;;;;8.75;6.88;;;7.60;99.90;;;;;;5041993;28;20046;-35
2024/03/05 00:55:53;;;;;;;9.38;7.20;;;7.70;99.90;;;;;;5042492;28;20051;-33
2024/03/05 00:58:20;;;;;;;9.40;7.20;;;7.70;99.90;;;;;;5040847;28;20048;-35
2024/03/05 01:00:47;;;;;;;8.77;7.03;;;7.70;99.90;;;;;;5042505;28;20025;-33
2024/03/05 01:03:12;;;;;;;8.73;7.00;;;7.80;99.90;;;;;;5041904;28;20100;-36
2024/03/05 01:05:38;;;;;;;8.23;6.97;;;7.80;99.90;;;;;;5042416;28;20043;-34
2024/03/05 01:08:04;;;;;;;9.43;7.35;;;7.90;99.90;;;;;;5041507;28;20514;-34
2024/03/05 01:10:33;;;;;;;9.63;7.32;;;7.90;99.90;;;;;;5041507;28;20056;-32
2024/03/05 01:12:58;;;;;;;9.00;7.10;;;7.90;99.90;;;;;;5042923;28;20028;-33
2024/03/05 01:15:24;;;;;;;9.60;7.63;;;7.90;99.90;;;;;;5041655;28;20020;-35
2024/03/05 01:17:50;;;;;;;9.20;7.60;;;7.90;99.90;;;;;;5041069;28;20025;-35
2024/03/05 01:20:16;;;;;;;10.73;6.90;;;7.90;99.90;;;;;;5042302;28;20134;-35
2024/03/05 01:22:48;;;;;;;7.65;6.00;;;7.90;99.90;;;;;;5041904;28;20021;-37
2024/03/05 01:25:17;;;;;;;8.88;6.45;;;7.90;99.90;;;;;;5040748;28;20028;-32
2024/03/05 01:27:42;;;;;;;8.52;6.15;;;7.90;99.90;;;;;;5042382;28;20755;-36
2024/03/05 01:30:11;;;;;;;7.63;6.20;;;7.90;99.90;;;;;;5042071;28;20037;-34
2024/03/05 01:32:38;;;;;;;9.18;6.32;;;7.90;99.90;;;;;;5040634;28;20547;-32
2024/03/05 01:35:09;;;;;;;9.80;6.72;;;7.90;99.90;;;;;;5041223;28;20079;-35
2024/03/05 01:37:35;;;;;;;8.70;6.75;;;7.90;99.90;;;;;;5041906;28;20059;-34
2024/03/05 01:40:03;;;;;;;10.93;7.75;;;7.80;99.90;;;;;;5041408;28;20468;-35
2024/03/05 01:42:29;;;;;;;9.73;7.60;;;7.80;99.90;;;;;;5042549;28;20033;-34
2024/03/05 01:44:58;;;;;;;9.52;7.13;;;7.70;99.90;;;;;;5042293;28;20021;-32
2024/03/05 01:47:25;;;;;;;8.30;6.65;;;7.80;99.90;;;;;;5040672;28;20037;-30
2024/03/05 01:49:51;;;;;;;9.07;7.50;;;7.70;99.90;;;;;;5041883;28;20037;-31
2024/03/05 01:52:20;;;;;;;9.60;7.47;;;7.70;99.90;;;;;;5041259;28;20761;-32
2024/03/05 01:54:45;;;;;;;9.70;7.47;;;7.70;99.90;;;;;;5041820;28;20024;-33
2024/03/05 01:57:11;;;;;;;9.25;7.30;;;7.70;99.90;;;;;;5041251;28;20033;-35
2024/03/05 01:59:41;;;;;;;9.57;7.45;;;7.80;99.90;;;;;;5040959;28;20375;-34
2024/03/05 02:02:07;;;;;;;10.50;7.95;;;7.80;99.90;;;;;;5041121;28;20518;-34
2024/03/05 02:04:36;;;;;;;9.20;7.50;;;7.80;99.90;;;;;;5041423;28;20024;-35
2024/03/05 02:07:09;;;;;;;9.85;7.07;;;7.80;99.90;;;;;;5040643;28;20099;-33
2024/03/05 02:09:36;;;;;;;9.68;6.85;;;7.80;99.90;;;;;;5040690;28;20041;-38
2024/03/05 02:12:02;;;;;;;8.77;6.95;;;7.90;99.90;;;;;;5041348;28;20025;-32
2024/03/05 02:14:28;;;;;;;9.32;7.43;;;7.80;99.90;;;;;;5040284;28;20035;-35
2024/03/05 02:16:57;;;;;;;9.93;7.60;;;7.80;99.90;;;;;;5040649;28;20056;-34
2024/03/05 02:19:23;;;;;;;9.50;7.65;;;7.90;99.90;;;;;;5041172;28;20037;-36
2024/03/05 02:21:55;;;;;;;10.07;7.40;;;7.90;99.90;;;;;;5040534;28;20052;-35
2024/03/05 02:24:21;;;;;;;9.98;7.35;;;7.90;99.90;;;;;;5041221;28;20144;-35
2024/03/05 02:26:47;;;;;;;10.45;7.93;;;7.90;99.90;;;;;;5041295;28;20021;-35
2024/03/05 02:29:12;;;;;;;11.70;8.05;;;7.90;99.90;;;;;;5039447;28;20099;-32
2024/03/05 02:31:38;;;;;;;11.35;8.30;;;8.00;99.90;;;;;;5040630;28;20215;-33
2024/03/05 02:34:04;;;;;;;10.90;8.18;;;7.90;99.90;;;;;;5040454;28;20037;-33
2024/03/05 02:36:30;;;;;;;11.93;8.02;;;7.90;99.90;;;;;;5040314;28;20025;-36
2024/03/05 02:38:58;;;;;;;11.43;9.35;;;7.90;99.90;;;;;;5040400;28;20613;-32
2024/03/05 02:41:27;;;;;;;11.70;9.15;;;7.90;99.90;;;;;;5040049;28;20495;-33
2024/03/05 02:43:52;;;;;;;14.43;8.70;;;7.90;99.90;;;;;;5040131;28;20366;-34
2024/03/05 02:46:18;;;;;;;11.35;8.45;;;7.90;99.90;;;;;;5040063;28;20770;-34
2024/03/05 02:48:43;;;;;;;12.18;8.73;;;7.90;99.90;;;;;;5040088;28;20114;-34
2024/03/05 02:51:09;;;;;;;11.85;8.80;;;7.90;99.90;;;;;;5040459;28;20036;-34
2024/03/05 02:53:35;;;;;;;10.63;8.15;;;7.90;99.90;;;;;;5040225;28;20021;-32
2024/03/05 02:56:04;;;;;;;10.82;8.40;;;8.00;99.90;;;;;;5039609;28;20024;-35
2024/03/05 02:58:30;;;;;;;12.10;8.80;;;8.00;99.90;;;;;;5039737;28;20435;-32
2024/03/05 03:00:56;;;;;;;11.27;8.35;;;8.00;99.90;;;;;;5040480;28;20021;-33
2024/03/05 03:03:22;;;;;;;14.40;8.48;;;8.00;99.90;;;;;;5038952;28;20156;-35
2024/03/05 03:05:47;;;;;;;12.18;8.40;;;8.00;99.90;;;;;;5040443;28;20025;-35
2024/03/05 03:08:13;;;;;;;12.45;8.50;;;8.00;99.90;;;;;;5039311;28;20408;-31
2024/03/05 03:10:39;;;;;;;10.00;7.47;;;8.00;99.90;;;;;;5039635;28;20500;-33
2024/03/05 03:13:04;;;;;;;10.52;8.70;;;8.00;99.90;;;;;;5040315;28;20140;-33
2024/03/05 03:15:30;;;;;;;11.55;8.23;;;8.00;99.90;;;;;;5040395;28;20032;-31
2024/03/05 03:17:57;;;;;;;14.38;9.52;;;8.00;99.90;;;;;;5039364;28;20029;-35
2024/03/05 03:20:22;;;;;;;12.02;9.48;;;8.00;99.90;;;;;;5040039;28;20036;-30
2024/03/05 03:22:48;;;;;;;13.27;10.23;;;8.00;99.90;;;;;;5040136;28;20335;-35
2024/03/05 03:25:13;;;;;;;12.50;9.23;;;8.00;99.90;;;;;;5039667;28;20468;-32
2024/03/05 03:27:43;;;;;;;12.40;9.88;;;8.00;99.90;;;;;;5040224;28;20594;-34
2024/03/05 03:30:15;;;;;;;13.43;9.98;;;8.10;99.90;;;;;;5039965;28;20033;-37
2024/03/05 03:32:46;;;;;;;13.77;9.85;;;8.10;99.90;;;;;;5037687;28;20036;-31
2024/03/05 03:35:13;;;;;;;12.75;9.73;;;8.10;99.90;;;;;;5039243;28;20025;-32
2024/03/05 03:37:40;;;;;;;13.18;9.55;;;8.10;99.90;;;;;;5040176;28;20932;-34
2024/03/05 03:40:09;;;;;;;14.98;10.60;;;8.10;99.90;;;;;;5039183;28;20190;-35
2024/03/05 03:42:35;;;;;;;14.25;10.45;;;8.20;99.90;;;;;;5043760;28;20106;-35
2024/03/05 03:45:01;;;;;;;13.27;10.13;;;8.10;99.90;;;;;;5043877;28;20100;-31
2024/03/05 03:47:26;;;;;;;12.00;9.50;;;8.20;99.90;;;;;;5043751;28;20037;-31
2024/03/05 03:49:52;;;;;;;14.55;10.38;;;8.20;99.90;;;;;;5043031;28;20033;-32
2024/03/05 03:52:18;;;;;;;13.95;10.48;;;8.20;99.90;;;;;;5042875;28;20158;-35
2024/03/05 03:54:44;;;;;;;15.25;10.70;;;8.20;99.90;;;;;;5043790;28;20029;-34
2024/03/05 03:57:10;;;;;;;14.60;10.07;;;8.20;99.90;;;;;;5043120;28;20031;-35
2024/03/05 03:59:36;;;;;;;14.65;10.60;;;8.20;99.90;;;;;;5042282;28;20094;-32
2024/03/05 04:02:03;;;;;;;13.10;10.32;;;8.20;99.90;;;;;;5044305;28;20582;-33
2024/03/05 04:04:29;;;;;;;14.00;10.45;;;8.20;99.90;;;;;;5043665;28;20043;-36
2024/03/05 04:06:55;;;;;;;14.55;10.57;;;8.20;99.90;;;;;;5043159;28;20578;-33
2024/03/05 04:09:20;;;;;;;13.65;9.75;;;8.20;99.90;;;;;;5043335;28;20460;-34
2024/03/05 04:11:46;;;;;;;14.13;9.40;;;8.20;99.90;;;;;;5043279;28;20028;-37
2024/03/05 04:14:11;;;;;;;11.52;8.98;;;8.20;99.90;;;;;;5042296;28;20633;-32
2024/03/05 04:16:42;;;;;;;12.45;9.68;;;8.20;99.90;;;;;;5043555;28;20435;-31
2024/03/05 04:19:08;;;;;;;11.13;8.85;;;8.20;99.90;;;;;;5042975;28;20024;-34
2024/03/05 04:21:42;;;;;;;11.82;9.07;;;8.20;99.90;;;;;;5042364;28;20014;-36
2024/03/05 04:24:17;;;;;;;11.57;8.88;;;8.20;99.90;;;;;;5042983;28;20033;-36
2024/03/05 04:26:48;;;;;;;14.35;10.50;;;8.20;99.90;;;;;;5042795;28;20025;-35
2024/03/05 04:29:19;;;;;;;13.73;8.98;;;8.20;99.90;;;;;;5042335;28;20052;-35
2024/03/05 04:31:54;;;;;;;13.80;10.50;;;8.20;99.90;;;;;;5043941;28;20133;-31
2024/03/05 04:34:21;;;;;;;13.90;10.02;;;8.20;99.90;;;;;;5041740;28;20123;-34
2024/03/05 04:36:47;;;;;;;15.55;11.07;;;8.20;99.90;;;;;;5041226;28;20477;-37
2024/03/05 04:39:15;;;;;;;17.30;11.82;;;8.30;99.90;;;;;;5041400;28;20025;-35
2024/03/05 04:41:44;;;;;;;18.65;12.27;;;8.30;99.90;;;;;;5040302;28;20053;-33
2024/03/05 04:44:10;;;;;;;17.95;12.68;;;8.30;99.90;;;;;;5041854;28;20040;-35
2024/03/05 04:46:35;;;;;;;18.25;13.15;;;8.30;99.90;;;;;;5041778;28;20029;-33
2024/03/05 04:49:01;;;;;;;17.20;11.75;;;8.30;99.90;;;;;;5040542;28;20035;-33
2024/03/05 04:51:26;;;;;;;19.45;12.90;;;8.30;99.90;;;;;;5041982;28;20025;-34
2024/03/05 04:53:52;;;;;;;21.90;13.75;;;8.30;99.90;;;;;;5041988;28;20035;-33
2024/03/05 04:56:18;;;;;;;19.98;13.70;;;8.30;99.90;;;;;;5041751;28;20021;-34
2024/03/05 04:58:43;;;;;;;22.15;13.95;;;8.30;99.90;;;;;;5043040;28;20040;-35
2024/03/05 05:01:09;;;;;;;22.77;15.20;;;8.30;99.90;;;;;;5042691;28;20028;-35
2024/03/05 05:03:34;;;;;;;23.30;14.20;;;8.30;99.90;;;;;;5042035;28;20444;-31
2024/03/05 05:06:00;;;;;;;24.30;14.57;;;8.20;99.90;;;;;;5042638;28;20112;-35
2024/03/05 05:08:25;;;;;;;26.85;15.85;;;8.30;99.90;;;;;;5041216;28;20045;-35
2024/03/05 05:10:54;;;;;;;24.00;15.50;;;8.20;99.90;;;;;;5042034;28;20052;-33
2024/03/05 05:13:20;;;;;;;21.92;15.07;;;8.30;99.90;;;;;;5041764;28;20074;-35
2024/03/05 05:15:46;;;;;;;22.55;14.57;;;8.30;99.90;;;;;;5042808;28;20029;-32
2024/03/05 05:18:13;;;;;;;19.65;13.95;;;8.20;99.90;;;;;;5041871;28;20105;-33
2024/03/05 05:20:39;;;;;;;20.63;13.23;;;8.30;99.90;;;;;;5041958;28;20432;-35
2024/03/05 05:23:04;;;;;;;20.10;13.27;;;8.30;99.90;;;;;;5041952;28;20083;-33
2024/03/05 05:25:30;;;;;;;22.25;13.15;;;8.30;99.90;;;;;;5041513;28;20028;-36
2024/03/05 05:27:55;;;;;;;19.88;13.68;;;8.30;99.90;;;;;;5042284;28;20017;-32
2024/03/05 05:30:23;;;;;;;18.23;12.02;;;8.30;99.90;;;;;;5041426;28;20207;-34
2024/03/05 05:32:49;;;;;;;20.42;12.60;;;8.30;99.90;;;;;;5042213;28;20500;-34
2024/03/05 05:35:16;;;;;;;20.98;12.80;;;8.30;99.90;;;;;;5041586;28;20032;-33
2024/03/05 05:37:42;;;;;;;25.77;15.80;;;8.30;99.90;;;;;;5040975;28;20086;-32
2024/03/05 05:40:11;;;;;;;24.58;14.55;;;8.30;99.90;;;;;;5042171;28;20067;-31
2024/03/05 05:42:42;;;;;;;23.50;14.93;;;8.30;99.90;;;;;;5040997;28;20413;-33
2024/03/05 05:45:12;;;;;;;21.60;13.60;;;8.30;99.90;;;;;;5040390;28;20479;-36
2024/03/05 05:47:42;;;;;;;21.65;13.40;;;8.30;99.90;;;;;;5041337;28;20059;-35
2024/03/05 05:50:17;;;;;;;19.30;12.68;;;8.30;99.90;;;;;;5041076;28;20040;-37
2024/03/05 05:52:48;;;;;;;21.20;12.52;;;8.30;99.90;;;;;;5040851;28;20098;-31
2024/03/05 05:55:15;;;;;;;19.77;12.70;;;8.30;99.90;;;;;;5041890;28;20039;-32
2024/03/05 05:57:44;;;;;;;23.63;12.65;;;8.30;99.90;;;;;;5041389;28;20106;-35
2024/03/05 06:00:22;;;;;;;19.20;11.98;;;8.30;99.90;;;;;;5040663;28;20380;-33
2024/03/05 06:02:50;;;;;;;19.40;11.60;;;8.30;99.90;;;;;;5041894;28;20060;-33
2024/03/05 06:05:16;;;;;;;24.10;14.30;;;8.30;99.90;;;;;;5041361;28;20035;-33
2024/03/05 06:07:43;;;;;;;26.67;15.07;;;8.30;99.90;;;;;;5040676;28;20041;-31
2024/03/05 06:10:09;;;;;;;22.88;14.15;;;8.30;99.90;;;;;;5041163;28;20490;-35
2024/03/05 06:12:34;;;;;;;23.48;14.30;;;8.30;99.90;;;;;;5040554;28;20025;-34
2024/03/05 06:15:00;;;;;;;26.35;15.82;;;8.20;99.90;;;;;;5041731;28;20435;-32
2024/03/05 06:17:26;;;;;;;27.92;15.52;;;8.20;99.90;;;;;;5040530;28;20025;-32
2024/03/05 06:19:52;;;;;;;23.25;14.48;;;8.20;99.90;;;;;;5040018;28;20090;-35
2024/03/05 06:22:18;;;;;;;20.13;13.20;;;8.20;99.90;;;;;;5040850;28;20017;-35
2024/03/05 06:24:47;;;;;;;19.30;12.35;;;8.30;99.90;;;;;;5041356;28;20115;-36
2024/03/05 06:27:12;;;;;;;19.52;12.32;;;8.30;99.90;;;;;;5040412;28;20039;-33
2024/03/05 06:29:40;;;;;;;21.63;13.40;;;8.30;99.90;;;;;;5040178;28;20045;-36
2024/03/05 06:32:09;;;;;;;20.10;11.88;;;8.30;99.90;;;;;;5040714;28;20025;-34
2024/03/05 06:34:35;;;;;;;20.23;11.82;;;8.40;99.90;;;;;;5039603;28;20850;-30
2024/03/05 06:37:01;;;;;;;18.58;11.48;;;8.40;99.90;;;;;;5040805;28;20033;-35
2024/03/05 06:39:29;;;;;;;18.58;11.15;;;8.40;99.90;;;;;;5039731;28;20024;-33
2024/03/05 06:41:56;;;;;;;18.27;10.95;;;8.40;99.90;;;;;;5040132;28;20032;-30
2024/03/05 06:44:35;;;;;;;18.02;10.38;;;8.40;99.90;;;;;;5040090;28;20033;-31
2024/03/05 06:47:01;;;;;;;17.08;11.30;;;8.40;99.90;;;;;;5039113;28;20274;-34
2024/03/05 06:49:29;;;;;;;20.20;11.80;;;8.40;99.90;;;;;;5038918;28;20033;-34
2024/03/05 06:56:39;;;;;;;21.85;12.52;;;8.40;99.90;;;;;;5040096;28;20120;-35
2024/03/05 06:57:32;;;;;;;21.00;11.73;;;8.40;99.90;;;;;;5048717;28;20112;-33
2024/03/05 06:59:58;;;;;;;19.75;11.60;;;8.40;99.90;;;;;;5050663;28;20103;-35
2024/03/05 07:02:27;;;;;;;18.33;11.20;;;8.40;99.90;;;;;;5037907;28;20032;-32
2024/03/05 07:04:53;;;;;;;22.02;12.65;;;8.40;99.90;;;;;;5040074;28;20562;-34
2024/03/05 07:07:19;;;;;;;24.08;14.40;;;8.40;99.90;;;;;;5038023;28;20045;-34
2024/03/05 07:09:45;;;;;;;21.55;13.57;;;8.40;99.90;;;;;;5037248;28;20060;-34
2024/03/05 07:12:12;;;;;;;24.90;14.75;;;8.40;99.90;;;;;;5037757;28;20124;-34
2024/03/05 07:14:38;;;;;;;23.90;13.13;;;8.50;99.90;;;;;;5038328;28;20017;-33
2024/03/05 07:17:06;;;;;;;21.85;13.27;;;8.50;99.90;;;;;;5036404;28;20031;-33
2024/03/05 07:19:32;;;;;;;23.23;13.52;;;8.50;99.90;;;;;;5038502;28;20028;-31
2024/03/05 07:21:58;;;;;;;25.23;14.30;;;8.50;99.90;;;;;;5038293;28;20017;-34
2024/03/05 07:24:23;;;;;;;22.23;12.73;;;8.50;99.90;;;;;;5039072;28;20181;-33
2024/03/05 07:26:49;;;;;;;23.65;13.05;;;8.50;99.90;;;;;;5039292;28;20446;-34
2024/03/05 07:29:15;;;;;;;23.10;13.27;;;8.60;99.90;;;;;;5039304;28;20033;-35
2024/03/05 07:31:41;;;;;;;25.05;13.77;;;8.60;99.90;;;;;;5037745;28;20025;-35
2024/03/05 07:34:07;;;;;;;23.45;13.45;;;8.60;99.90;;;;;;5038831;28;20025;-32
2024/03/05 07:36:33;;;;;;;22.90;13.77;;;8.60;99.90;;;;;;5039020;28;20021;-34
2024/03/05 07:38:59;;;;;;;24.67;13.90;;;8.70;99.90;;;;;;5038701;28;20063;-35
2024/03/05 07:41:24;;;;;;;24.45;14.32;;;8.70;99.90;;;;;;5039110;28;20136;-34
2024/03/05 07:43:50;;;;;;;24.38;14.48;;;8.70;99.90;;;;;;5039416;28;20024;-31
2024/03/05 07:46:18;;;;;;;24.40;13.90;;;8.70;99.90;;;;;;5037976;28;20193;-33
2024/03/05 07:48:46;;;;;;;25.13;14.48;;;8.80;99.90;;;;;;5039981;28;20033;-35
2024/03/05 07:51:12;;;;;;;22.70;12.95;;;8.80;99.90;;;;;;5039009;28;20115;-32
2024/03/05 07:53:37;;;;;;;22.67;13.60;;;8.80;99.90;;;;;;5039691;28;20771;-35
2024/03/05 07:56:04;;;;;;;25.70;14.45;;;8.90;99.90;;;;;;5040150;28;20480;-35
2024/03/05 07:58:30;;;;;;;22.90;13.57;;;8.90;99.90;;;;;;5038967;28;20032;-31
2024/03/05 08:01:00;;;;;;;24.17;14.32;;;9.00;99.90;;;;;;5038781;28;20368;-35
2024/03/05 08:03:26;;;;;;;21.17;13.35;;;9.00;99.90;;;;;;5037666;28;20021;-34
2024/03/05 08:05:52;;;;;;;23.50;13.45;;;9.10;99.90;;;;;;5037820;28;20814;-35
2024/03/05 08:08:17;;;;;;;26.17;14.63;;;9.10;99.90;;;;;;5037711;28;20064;-32
2024/03/05 08:10:44;;;;;;;25.85;15.23;;;9.10;99.90;;;;;;5039269;28;20041;-33
2024/03/05 08:13:12;;;;;;;25.98;14.48;;;9.20;99.90;;;;;;5038376;28;20035;-35
2024/03/05 08:15:38;;;;;;;25.42;14.48;;;9.20;99.90;;;;;;5038921;28;20108;-35
2024/03/05 08:18:04;;;;;;;25.95;14.40;;;9.20;99.90;;;;;;5039202;28;20033;-34
2024/03/05 08:20:29;;;;;;;25.45;14.23;;;9.30;99.90;;;;;;5038729;28;20017;-34
2024/03/05 08:22:55;;;;;;;27.20;14.95;;;9.30;99.90;;;;;;5039357;28;20028;-34
2024/03/05 08:25:22;;;;;;;30.92;16.30;;;9.30;99.90;;;;;;5039114;28;20031;-34
2024/03/05 08:28:01;;;;;;;26.90;15.25;;;9.30;99.90;;;;;;5039368;28;20033;-32
2024/03/05 08:30:31;;;;;;;28.95;15.48;;;9.40;99.90;;;;;;5042765;28;20495;-34
2024/03/05 08:32:57;;;;;;;28.38;14.90;;;9.40;99.90;;;;;;5043375;28;20503;-35
2024/03/05 08:35:25;;;;;;;26.30;14.88;;;9.40;99.90;;;;;;5042716;28;20037;-33
2024/03/05 08:37:51;;;;;;;24.23;14.05;;;9.40;99.90;;;;;;5044261;28;20132;-34
2024/03/05 08:40:19;;;;;;;28.10;14.43;;;9.40;99.90;;;;;;5031656;28;20112;-34
2024/03/05 08:42:47;;;;;;;26.65;14.30;;;9.50;99.90;;;;;;5042914;28;20507;-36
2024/03/05 08:45:15;;;;;;;25.20;14.75;;;9.50;99.90;;;;;;5042671;28;20447;-36
2024/03/05 08:47:44;;;;;;;32.28;16.30;;;9.50;99.90;;;;;;5042239;28;20021;-34
2024/03/05 08:50:11;;;;;;;25.20;15.10;;;9.60;99.90;;;;;;5038987;28;20033;-33
2024/03/05 08:52:37;;;;;;;27.10;15.35;;;9.60;99.90;;;;;;5043631;28;20028;-33
2024/03/05 08:55:05;;;;;;;28.92;16.00;;;9.60;99.90;;;;;;5042900;28;20061;-33
2024/03/05 08:57:31;;;;;;;28.58;16.08;;;9.60;99.90;;;;;;5043241;28;20025;-38
2024/03/05 09:00:01;;;;;;;27.10;15.15;;;9.70;99.90;;;;;;5043321;28;20025;-33
2024/03/05 09:02:26;;;;;;;26.65;15.00;;;9.70;99.90;;;;;;5041848;28;20024;-34
2024/03/05 09:04:52;;;;;;;28.05;15.32;;;9.70;99.90;;;;;;5042638;28;20040;-31
2024/03/05 09:07:18;;;;;;;26.15;15.82;;;9.80;99.90;;;;;;5042123;28;20052;-36
2024/03/05 09:09:44;;;;;;;25.90;14.90;;;9.80;99.90;;;;;;5041454;28;20029;-35
2024/03/05 09:12:12;;;;;;;28.58;16.90;;;9.80;99.90;;;;;;5041782;28;20036;-39
2024/03/05 09:14:40;;;;;;;25.52;15.05;;;9.80;99.90;;;;;;5041498;28;20465;-34
2024/03/05 09:17:09;;;;;;;27.15;15.48;;;9.90;99.90;;;;;;5041203;28;20021;-34
2024/03/05 09:19:36;;;;;;;25.33;15.20;;;9.90;99.90;;;;;;5041800;28;20029;-36
2024/03/05 09:22:05;;;;;;;25.63;15.25;;;9.90;99.90;;;;;;5042512;28;20029;-36
2024/03/05 09:24:35;;;;;;;27.75;15.43;;;9.90;99.90;;;;;;5041064;28;20025;-34
2024/03/05 09:27:01;;;;;;;25.90;14.85;;;9.90;99.90;;;;;;5041889;28;20025;-35
2024/03/05 09:29:27;;;;;;;27.60;15.93;;;9.90;99.90;;;;;;5040530;28;20029;-35
2024/03/05 09:31:53;;;;;;;24.55;15.25;;;9.90;99.90;;;;;;5042467;28;20063;-35
2024/03/05 09:34:22;;;;;;;28.55;15.63;;;9.90;99.90;;;;;;5041003;28;20139;-31
2024/03/05 09:36:49;;;;;;;27.90;16.40;;;10.00;99.90;;;;;;5041916;28;20020;-30
2024/03/05 09:39:15;;;;;;;29.48;16.05;;;10.00;99.90;;;;;;5041849;28;20041;-36
2024/03/05 09:41:43;;;;;;;27.85;16.25;;;10.00;99.90;;;;;;5041463;28;20040;-32
2024/03/05 09:44:09;;;;;;;26.05;15.57;;;10.10;99.90;;;;;;5041047;28;20077;-31
2024/03/05 09:46:39;;;;;;;26.20;16.17;;;10.10;99.90;;;;;;5041762;28;20021;-34
2024/03/05 09:49:11;;;;;;;25.23;14.93;;;10.10;99.90;;;;;;5039995;28;20045;-33
2024/03/05 09:51:41;;;;;;;24.80;15.25;;;10.10;99.90;;;;;;5040897;28;20079;-34
2024/03/05 09:54:10;;;;;;;28.73;15.18;;;10.10;99.90;;;;;;5022054;28;20029;-33
2024/03/05 09:56:39;;;;;;;25.73;15.70;;;10.10;99.90;;;;;;5036044;28;20071;-34
2024/03/05 09:59:06;;;;;;;28.75;15.70;;;10.20;99.90;;;;;;5040467;28;20877;-33
2024/03/05 10:01:35;;;;;;;29.90;17.15;;;10.20;99.90;;;;;;5041692;28;20024;-34
2024/03/05 10:04:05;;;;;;;26.42;15.63;;;10.20;99.90;;;;;;5041808;28;20025;-35
2024/03/05 10:06:30;;;;;;;26.58;15.40;;;10.30;99.90;;;;;;5039970;28;20013;-36
2024/03/05 10:08:56;;;;;;;28.02;17.25;;;10.30;99.90;;;;;;5041405;28;20398;-35
2024/03/05 10:11:22;;;;;;;27.20;16.45;;;10.30;99.90;;;;;;5040510;28;20024;-36
2024/03/05 10:13:51;;;;;;;25.60;15.73;;;10.40;99.90;;;;;;5040970;28;20102;-33
2024/03/05 10:16:22;;;;;;;26.63;16.05;;;10.40;99.90;;;;;;5040893;28;20035;-31
2024/03/05 10:18:49;;;;;;;26.88;15.30;;;10.50;99.90;;;;;;5039500;28;20028;-31
2024/03/05 10:21:23;;;;;;;25.05;14.93;;;10.50;99.90;;;;;;5040852;28;20032;-33
2024/03/05 10:23:59;;;;;;;24.00;15.70;;;10.50;99.90;;;;;;5030624;28;20036;-37
2024/03/05 10:26:28;;;;;;;24.10;14.60;;;10.50;99.90;;;;;;5039636;28;20021;-35
2024/03/05 10:28:56;;;;;;;24.48;15.45;;;10.50;99.90;;;;;;5041107;28;20087;-36
2024/03/05 10:31:23;;;;;;;24.55;15.48;;;10.50;99.90;;;;;;5040400;28;20094;-31
2024/03/05 10:33:53;;;;;;;22.23;14.30;;;10.50;99.90;;;;;;5040288;28;20120;-35
2024/03/05 10:36:38;;;;;;;25.40;14.88;;;10.50;99.90;;;;;;5040628;28;20029;-36
2024/03/05 10:39:08;;;;;;;21.73;14.57;;;10.50;99.90;;;;;;5039552;28;20029;-35
2024/03/05 10:41:38;;;;;;;22.48;13.98;;;10.50;99.90;;;;;;5039644;28;20033;-36
2024/03/05 10:44:06;;;;;;;21.85;14.32;;;10.50;99.90;;;;;;5039457;28;20040;-32
2024/03/05 10:46:34;;;;;;;23.85;15.05;;;10.60;99.90;;;;;;5041072;28;20032;-34
2024/03/05 10:49:03;;;;;;;24.67;15.90;;;10.60;99.90;;;;;;5040478;28;20724;-34
2024/03/05 10:51:37;;;;;;;22.70;15.50;;;10.60;99.90;;;;;;5039612;28;20760;-33
2024/03/05 10:54:06;;;;;;;24.60;15.35;;;10.60;99.90;;;;;;5039926;28;20480;-31
2024/03/05 10:56:34;;;;;;;24.55;15.23;;;10.70;99.90;;;;;;5039837;28;20771;-33
2024/03/05 11:01:44;;;;;;;23.63;15.50;;;10.60;99.90;;;;;;5040082;28;20072;-31
2024/03/05 11:04:24;;;;;;;24.25;14.75;;;10.60;99.90;;;;;;5039939;28;20040;-34
2024/03/05 11:06:59;;;;;;;24.48;15.13;;;10.60;99.90;;;;;;5040050;28;20516;-34
2024/03/05 11:09:26;;;;;;;21.35;14.25;;;10.60;99.90;;;;;;5039202;28;20056;-35
2024/03/05 11:12:07;;;;;;;22.95;15.45;;;10.60;99.90;;;;;;5041107;28;20156;-34
2024/03/05 11:14:35;;;;;;;22.35;14.75;;;10.60;99.90;;;;;;5037143;28;20033;-32
2024/03/05 11:17:09;;;;;;;19.50;13.88;;;10.60;99.90;;;;;;5039516;28;20017;-34
2024/03/05 11:19:38;;;;;;;21.58;14.02;;;10.50;99.90;;;;;;5039549;28;20069;-35
2024/03/05 11:22:23;;;;;;;21.55;14.20;;;10.50;99.90;;;;;;5039291;28;20079;-34
2024/03/05 11:25:04;;;;;;;19.35;12.57;;;10.50;99.90;;;;;;5039824;28;20136;-33
2024/03/05 11:27:31;;;;;;;17.33;12.30;;;10.50;99.90;;;;;;5038556;28;20033;-33
2024/03/05 11:30:08;;;;;;;15.32;10.30;;;10.60;99.90;;;;;;5039158;28;20040;-35
2024/03/05 11:32:35;;;;;;;14.50;10.07;;;10.50;99.90;;;;;;5038881;28;20032;-36
2024/03/05 11:35:01;;;;;;;14.32;10.00;;;10.50;99.90;;;;;;5038290;28;20242;-31
2024/03/05 11:37:27;;;;;;;12.00;9.50;;;10.50;99.90;;;;;;5050425;28;20036;-34
2024/03/05 11:39:52;;;;;;;12.15;9.15;;;10.50;99.90;;;;;;5046046;28;20029;-35
2024/03/05 11:42:20;;;;;;;13.15;9.68;;;10.40;99.90;;;;;;5039155;28;20032;-32
2024/03/05 11:44:51;;;;;;;11.43;8.48;;;10.40;99.90;;;;;;5038849;28;20082;-33
2024/03/05 11:47:21;;;;;;;11.35;8.40;;;10.30;99.90;;;;;;5039173;28;20033;-39
2024/03/05 11:49:46;;;;;;;13.07;8.95;;;10.30;99.90;;;;;;5038901;28;20029;-34
2024/03/05 11:52:13;;;;;;;11.75;8.65;;;10.30;99.90;;;;;;5039077;28;20094;-34
2024/03/05 11:54:39;;;;;;;13.35;8.88;;;10.20;99.90;;;;;;5039496;28;20693;-33
2024/03/05 11:57:11;;;;;;;11.90;9.27;;;10.20;99.90;;;;;;5039083;28;20032;-36
2024/03/05 11:59:38;;;;;;;11.75;9.23;;;10.20;99.90;;;;;;5039402;28;20435;-35
2024/03/05 12:02:15;;;;;;;12.50;9.32;;;10.20;99.90;;;;;;5040938;28;20036;-35
2024/03/05 12:04:42;;;;;;;13.82;10.07;;;10.10;99.90;;;;;;5042779;28;20039;-32
2024/03/05 12:07:11;;;;;;;13.85;9.77;;;10.10;99.90;;;;;;5042664;28;20234;-34
2024/03/05 12:09:37;;;;;;;14.38;9.82;;;10.10;99.90;;;;;;5043362;28;20723;-35
2024/03/05 12:12:11;;;;;;;16.17;10.77;;;10.10;99.90;;;;;;5042893;28;20846;-33
2024/03/05 12:14:39;;;;;;;18.92;13.50;;;10.00;99.90;;;;;;5042685;28;20036;-34
2024/03/05 12:17:07;;;;;;;18.73;13.35;;;9.90;99.90;;;;;;5042439;28;20805;-34
2024/03/05 12:19:37;;;;;;;17.38;13.02;;;9.80;99.90;;;;;;5041871;28;20032;-29
2024/03/05 12:22:04;;;;;;;16.08;11.90;;;9.70;99.90;;;;;;5042553;28;20028;-30
2024/03/05 12:24:30;;;;;;;13.90;10.48;;;9.60;99.90;;;;;;5043312;28;20551;-36
2024/03/05 12:26:57;;;;;;;12.93;9.60;;;9.60;99.90;;;;;;5042589;28;20029;-31
2024/03/05 12:29:37;;;;;;;12.40;8.90;;;9.70;99.90;;;;;;5041766;28;20936;-28
2024/03/05 12:32:13;;;;;;;10.15;8.20;;;9.60;99.90;;;;;;5041500;28;20032;-34
2024/03/05 12:34:43;;;;;;;10.63;8.02;;;9.60;99.90;;;;;;5042786;28;20163;-35
2024/03/05 12:37:13;;;;;;;11.93;8.10;;;9.70;99.90;;;;;;5042590;28;20024;-35
2024/03/05 12:39:42;;;;;;;10.07;7.40;;;9.70;99.90;;;;;;5022745;28;20273;-36
2024/03/05 12:42:13;;;;;;;11.23;8.00;;;9.70;99.90;;;;;;5038016;28;20094;-34
2024/03/05 12:44:39;;;;;;;9.35;7.25;;;9.70;99.90;;;;;;5042534;28;20082;-34
2024/03/05 12:47:10;;;;;;;10.30;7.85;;;9.70;99.90;;;;;;5041782;28;20500;-32
2024/03/05 12:49:44;;;;;;;10.63;8.13;;;9.70;99.90;;;;;;5042296;28;20072;-35